Impacts TAF Board
For situational awareness. Not to be used for flight planning purposes.
IDs:

KPAE - Everett/Paine Fld, WA, US

Issued at 1720 UTC 06 Dec 2019
Updated at 2147 UTC 06 Dec 2019
Potential Impact None Slight Moderate High
Time2053Z 06/22Z 06/23Z 07/00Z 07/01Z 07/02Z 07/03Z 07/04Z 07/05Z 07/06Z 07/07Z 07/08Z 07/09Z 07/10Z>>
Type OBS PRVL PRVL PRVL PRVL PRVL PRVL PRVL PRVL PRVL PRVL PRVL PRVL PRVL
VIS 10 >6 >6 >6 >6 >6 >6 >6 >6 >6 >6 >6 >6 >6
CIG -- 50 50 50 20 20 20 20 20 20 20 20 20 20
Cover CLR OVC OVC OVC OVC OVC OVC OVC OVC OVC OVC OVC OVC OVC
FltCat VFR VFR VFR VFR MVFR MVFR MVFR MVFR MVFR MVFR MVFR MVFR MVFR MVFR
WX -- -- -- -- -RA -RA -RA -RA -RA -RA -RA -RA -RA -RA
WDir VRB 150 150 150 160 160 160 160 160 160 160 160 160 160
WSpd 4 8 8 8 8 8 8 8 8 8 8 8 8 8
WGst -- -- -- -- -- -- -- -- -- -- -- -- -- --
Raw TAF
KPAE 061720Z 0618/0718 15005KT P6SM BKN050 OVC090
  FM062000 15008KT P6SM OVC050
  FM070100 16008KT P6SM -RA BKN020 OVC035
  FM071200 VRB04KT 5SM -DZ SCT005 OVC012
  TEMPO 0712/0716 2SM -DZ BR OVC005


Raw METAR
KPAE 062053Z VRB04KT 10SM CLR 13/04 A2986 RMK AO2 SLP112 T01280044 58019
KPAE 061953Z 15007KT 10SM BKN080 12/04 A2989 RMK AO2 SLP124 T01170039
KPAE 061853Z VRB04KT 10SM SCT080 10/04 A2991 RMK AO2 SLP129 T01000044

METAR Board
Radar Display
Forecast Discussion
For situational awareness. Not to be used for flight planning purposes.